createdAt,value
2022-12-31T00:00:34.746Z,2.45
2022-12-31T00:03:01.975Z,3.17
2022-12-31T00:05:31.774Z,2.10
2022-12-31T00:07:59.480Z,2.42
2022-12-31T00:10:26.702Z,2.47
2022-12-31T00:12:53.916Z,3.42
2022-12-31T00:15:21.905Z,2.55
2022-12-31T00:17:49.267Z,2.78
2022-12-31T00:20:16.793Z,2.85
2022-12-31T00:22:43.800Z,2.83
2022-12-31T00:25:10.874Z,2.08
2022-12-31T00:27:39.701Z,2.22
2022-12-31T00:30:07.693Z,2.63
2022-12-31T00:32:35.168Z,3.83
2022-12-31T00:35:02.296Z,2.50
2022-12-31T00:37:29.291Z,2.25
2022-12-31T00:39:56.353Z,2.13
2022-12-31T00:42:23.349Z,2.10
2022-12-31T00:44:50.421Z,2.33
2022-12-31T00:47:17.547Z,2.05
2022-12-31T00:49:44.547Z,2.20
2022-12-31T00:52:14.036Z,2.70
2022-12-31T00:54:40.984Z,3.55
2022-12-31T00:57:10.811Z,6.38
2022-12-31T00:59:37.765Z,5.78
2022-12-31T01:02:04.969Z,5.75
2022-12-31T01:04:32.011Z,8.13
2022-12-31T01:06:59.021Z,7.50
2022-12-31T01:09:26.037Z,8.45
2022-12-31T01:11:53.102Z,7.75
2022-12-31T01:14:20.846Z,6.25
2022-12-31T01:16:50.926Z,5.00
2022-12-31T01:19:28.034Z,8.15
2022-12-31T01:21:55.958Z,11.35
2022-12-31T01:24:23.540Z,11.57
2022-12-31T01:26:51.530Z,12.27
2022-12-31T01:29:18.711Z,13.52
2022-12-31T01:31:45.823Z,14.35
2022-12-31T01:34:12.840Z,15.23
2022-12-31T01:36:40.027Z,15.35
2022-12-31T01:39:08.782Z,15.55
2022-12-31T01:41:42.159Z,15.18
2022-12-31T01:44:12.041Z,14.32
2022-12-31T01:46:52.017Z,15.13
2022-12-31T01:49:31.268Z,12.95
2022-12-31T01:52:03.507Z,14.48
2022-12-31T01:54:33.861Z,12.70
2022-12-31T01:57:01.642Z,12.50
2022-12-31T01:59:30.613Z,14.63
2022-12-31T02:01:58.275Z,13.73
2022-12-31T02:04:26.663Z,13.60
2022-12-31T02:07:03.435Z,10.93
2022-12-31T02:09:32.005Z,10.60
2022-12-31T02:11:59.144Z,8.75
2022-12-31T02:14:35.089Z,11.40
2022-12-31T02:17:34.980Z,10.68
2022-12-31T02:20:27.945Z,9.80
2022-12-31T02:23:22.731Z,9.75
2022-12-31T02:26:01.438Z,8.90
2022-12-31T02:28:46.908Z,9.10
2022-12-31T02:31:33.318Z,9.82
2022-12-31T02:34:12.126Z,8.20
2022-12-31T02:36:43.918Z,8.90
2022-12-31T02:39:12.038Z,8.10
2022-12-31T02:41:51.140Z,6.72
2022-12-31T02:44:31.152Z,7.43
2022-12-31T02:47:01.403Z,7.47
2022-12-31T02:49:42.685Z,6.90
2022-12-31T02:52:33.136Z,6.13
2022-12-31T02:55:19.140Z,4.60
2022-12-31T02:57:53.348Z,3.65
2022-12-31T03:00:39.212Z,3.70
2022-12-31T03:03:08.227Z,3.45
2022-12-31T03:05:40.442Z,3.30
2022-12-31T03:08:07.758Z,2.67
2022-12-31T03:10:35.052Z,3.40
2022-12-31T03:13:03.574Z,3.17
2022-12-31T03:15:33.501Z,3.40
2022-12-31T03:18:07.405Z,4.57
2022-12-31T03:20:57.543Z,5.10
2022-12-31T03:23:28.221Z,3.95
2022-12-31T03:25:56.625Z,4.28
2022-12-31T03:28:29.519Z,4.20
2022-12-31T03:30:59.867Z,3.38
2022-12-31T03:33:31.929Z,3.30
2022-12-31T03:35:59.042Z,4.27
2022-12-31T03:38:26.122Z,3.42
2022-12-31T03:40:53.591Z,2.70
2022-12-31T03:43:21.213Z,2.88
2022-12-31T03:45:51.893Z,2.13
2022-12-31T03:48:20.971Z,2.30
2022-12-31T03:50:48.050Z,2.22
2022-12-31T03:53:15.451Z,2.30
2022-12-31T03:55:42.686Z,2.70
2022-12-31T03:58:09.700Z,3.10
2022-12-31T04:00:36.743Z,2.83
2022-12-31T04:03:03.767Z,2.97
2022-12-31T04:05:31.378Z,2.60
2022-12-31T04:07:58.452Z,3.17
2022-12-31T04:10:25.463Z,2.70
2022-12-31T04:12:52.459Z,2.60
2022-12-31T04:15:21.419Z,2.45
2022-12-31T04:17:49.001Z,2.35
2022-12-31T04:20:16.869Z,2.67
2022-12-31T04:22:44.468Z,2.63
2022-12-31T04:25:11.955Z,2.60
2022-12-31T04:27:41.464Z,2.55
2022-12-31T04:30:09.011Z,2.83
2022-12-31T04:32:36.203Z,2.70
2022-12-31T04:35:03.446Z,3.30
2022-12-31T04:37:30.598Z,3.00
2022-12-31T04:40:03.561Z,2.13
2022-12-31T04:42:32.768Z,3.13
2022-12-31T04:44:59.749Z,2.38
2022-12-31T04:47:26.736Z,2.25
2022-12-31T04:49:53.790Z,2.30
2022-12-31T04:52:20.955Z,2.50
2022-12-31T04:54:47.999Z,2.13
2022-12-31T04:57:15.073Z,2.80
2022-12-31T04:59:42.041Z,3.10
2022-12-31T05:02:09.541Z,3.00
2022-12-31T05:04:36.787Z,2.88
2022-12-31T05:07:03.839Z,3.17
2022-12-31T05:09:31.214Z,3.90
2022-12-31T05:11:58.307Z,3.33
2022-12-31T05:14:25.561Z,2.72
2022-12-31T05:16:52.738Z,2.72
2022-12-31T05:19:19.896Z,3.20
2022-12-31T05:22:06.896Z,3.30
2022-12-31T05:24:33.914Z,3.33
2022-12-31T05:27:01.242Z,3.80
2022-12-31T05:29:28.308Z,3.60
2022-12-31T05:31:55.271Z,3.42
2022-12-31T05:34:22.345Z,2.65
2022-12-31T05:36:49.336Z,2.95
2022-12-31T05:39:16.436Z,2.40
2022-12-31T05:41:43.485Z,2.35
2022-12-31T05:44:11.215Z,3.40
2022-12-31T05:46:38.263Z,3.97
2022-12-31T05:49:05.296Z,3.30
2022-12-31T05:51:32.360Z,3.78
2022-12-31T05:53:59.480Z,4.47
2022-12-31T05:56:26.562Z,5.18
2022-12-31T05:58:53.691Z,4.60
2022-12-31T06:01:20.696Z,5.22
2022-12-31T06:03:47.844Z,5.63
2022-12-31T06:06:14.881Z,5.43
2022-12-31T06:08:41.932Z,7.13
2022-12-31T06:11:08.945Z,6.85
2022-12-31T06:13:36.140Z,6.30
2022-12-31T06:16:07.922Z,6.25
2022-12-31T06:18:35.304Z,5.60
2022-12-31T06:21:02.435Z,6.10
2022-12-31T06:23:29.610Z,5.20
2022-12-31T06:25:56.822Z,5.93
2022-12-31T06:28:23.858Z,6.05
2022-12-31T06:30:50.877Z,5.90
2022-12-31T06:33:17.973Z,6.10
2022-12-31T06:35:45.064Z,6.78
2022-12-31T06:38:12.167Z,6.45
2022-12-31T06:40:39.203Z,6.95
2022-12-31T06:43:06.274Z,7.95
2022-12-31T06:45:33.485Z,8.40
2022-12-31T06:48:00.576Z,9.00
2022-12-31T06:50:27.751Z,10.43
2022-12-31T06:52:54.850Z,11.65
2022-12-31T06:55:22.155Z,15.75
2022-12-31T06:57:49.639Z,15.63
2022-12-31T07:00:17.336Z,16.65
2022-12-31T07:03:05.678Z,15.55
2022-12-31T07:06:02.079Z,17.55
2022-12-31T07:08:32.440Z,16.58
2022-12-31T07:11:15.627Z,16.77
2022-12-31T07:14:19.184Z,15.60
2022-12-31T07:17:05.763Z,15.60
2022-12-31T07:19:58.051Z,15.77
2022-12-31T07:22:25.741Z,14.32
2022-12-31T07:24:53.249Z,14.60
2022-12-31T07:27:55.231Z,13.88
2022-12-31T07:30:46.671Z,13.85
2022-12-31T07:33:28.748Z,15.07
2022-12-31T07:36:02.163Z,15.23
2022-12-31T07:38:34.233Z,15.07
2022-12-31T07:41:13.481Z,15.05
2022-12-31T07:43:52.644Z,14.98
2022-12-31T07:46:24.863Z,20.75
2022-12-31T07:48:52.294Z,22.38
2022-12-31T07:51:19.657Z,24.10
2022-12-31T07:53:46.688Z,25.30
2022-12-31T07:56:14.074Z,23.33
2022-12-31T07:58:41.360Z,22.67
2022-12-31T08:01:11.994Z,21.60
2022-12-31T08:03:55.087Z,20.83
2022-12-31T08:06:30.779Z,20.20
2022-12-31T08:09:10.004Z,20.17
2022-12-31T08:11:56.809Z,20.60
2022-12-31T08:14:24.321Z,21.20
2022-12-31T08:16:51.963Z,20.70
2022-12-31T08:19:31.714Z,19.92
2022-12-31T08:22:01.483Z,20.98
2022-12-31T08:24:50.044Z,42.97
2022-12-31T08:27:42.143Z,27.08
2022-12-31T08:30:10.673Z,25.95
2022-12-31T08:32:51.879Z,18.75
2022-12-31T08:35:47.728Z,18.70
2022-12-31T08:38:32.725Z,16.60
2022-12-31T08:41:00.196Z,16.38
2022-12-31T08:43:40.780Z,16.50
2022-12-31T08:46:32.037Z,16.00
2022-12-31T08:48:59.273Z,14.80
2022-12-31T08:51:27.417Z,13.05
2022-12-31T08:53:55.484Z,15.07
2022-12-31T08:56:50.325Z,23.02
2022-12-31T08:59:44.535Z,16.30
2022-12-31T09:02:21.034Z,17.55
2022-12-31T09:05:12.373Z,16.05
2022-12-31T09:07:46.001Z,17.73
2022-12-31T09:10:39.521Z,15.65
2022-12-31T09:13:25.433Z,13.82
2022-12-31T09:15:52.398Z,13.40
2022-12-31T09:18:19.627Z,15.38
2022-12-31T09:20:46.880Z,14.52
2022-12-31T09:23:14.292Z,11.82
2022-12-31T09:25:56.522Z,12.38
2022-12-31T09:28:52.938Z,14.03
2022-12-31T09:31:44.274Z,22.83
2022-12-31T09:34:37.169Z,17.50
2022-12-31T09:37:12.859Z,15.20
2022-12-31T09:39:39.757Z,13.73
2022-12-31T09:42:40.652Z,11.63
2022-12-31T09:45:26.207Z,11.73
2022-12-31T09:47:56.228Z,9.52
2022-12-31T09:50:57.720Z,10.55
2022-12-31T09:53:39.407Z,11.07
2022-12-31T09:56:27.213Z,10.00
2022-12-31T09:59:10.417Z,10.23
2022-12-31T10:01:45.060Z,9.20
2022-12-31T10:04:49.110Z,8.85
2022-12-31T10:07:30.915Z,8.73
2022-12-31T10:10:10.989Z,7.68
2022-12-31T10:13:02.505Z,7.93
2022-12-31T10:15:35.166Z,9.75
2022-12-31T10:18:20.468Z,7.10
2022-12-31T10:21:08.896Z,7.10
2022-12-31T10:24:08.711Z,6.25
2022-12-31T10:27:04.418Z,6.88
2022-12-31T10:30:09.413Z,6.85
2022-12-31T10:32:42.298Z,7.28
2022-12-31T10:35:21.764Z,6.32
2022-12-31T10:38:31.885Z,6.95
2022-12-31T10:41:29.184Z,6.40
2022-12-31T10:44:20.354Z,5.95
2022-12-31T10:47:04.407Z,4.28
2022-12-31T10:50:08.746Z,4.18
2022-12-31T10:52:50.685Z,4.40
2022-12-31T10:55:39.492Z,3.90
2022-12-31T10:58:28.005Z,3.90
2022-12-31T11:01:20.085Z,3.63
2022-12-31T11:04:02.095Z,3.70
2022-12-31T11:06:53.206Z,3.67
2022-12-31T11:09:38.497Z,2.72
2022-12-31T11:12:20.352Z,4.60
2022-12-31T11:14:57.057Z,5.22
2022-12-31T11:17:27.009Z,4.18
2022-12-31T11:20:15.881Z,2.17
2022-12-31T11:23:14.914Z,2.97
2022-12-31T11:25:48.280Z,4.85
2022-12-31T11:28:36.133Z,2.58
2022-12-31T11:31:15.204Z,2.00
2022-12-31T11:33:59.120Z,2.13
2022-12-31T11:36:48.165Z,1.95
2022-12-31T11:39:42.780Z,2.70
2022-12-31T11:42:29.734Z,2.42
2022-12-31T11:45:12.928Z,1.88
2022-12-31T11:48:31.064Z,1.92
2022-12-31T11:51:17.396Z,2.05
2022-12-31T11:54:24.629Z,1.98
2022-12-31T11:57:01.503Z,1.92
2022-12-31T11:59:28.655Z,1.73
2022-12-31T12:02:04.586Z,2.20
2022-12-31T12:04:31.909Z,1.70
2022-12-31T12:06:59.001Z,1.65
2022-12-31T12:09:32.378Z,1.83
2022-12-31T12:12:05.113Z,2.03
2022-12-31T12:14:44.062Z,2.17
2022-12-31T12:17:34.477Z,2.75
2022-12-31T12:20:15.229Z,2.33
2022-12-31T12:22:51.480Z,2.20
2022-12-31T12:25:25.507Z,2.20
2022-12-31T12:27:52.669Z,3.38
2022-12-31T12:30:24.917Z,3.67
2022-12-31T12:33:05.011Z,3.33
2022-12-31T12:35:35.269Z,2.88
2022-12-31T12:38:23.523Z,2.10
2022-12-31T12:41:02.930Z,2.10
2022-12-31T12:43:33.639Z,1.90
2022-12-31T12:46:27.717Z,2.58
2022-12-31T12:48:57.229Z,2.55
2022-12-31T12:51:33.713Z,3.15
2022-12-31T12:54:21.996Z,2.28
2022-12-31T12:57:00.942Z,2.58
2022-12-31T12:59:51.528Z,3.30
2022-12-31T13:02:36.791Z,1.90
2022-12-31T13:05:09.514Z,2.20
2022-12-31T13:10:42.345Z,2.42
2022-12-31T13:13:26.104Z,2.90
2022-12-31T13:16:05.217Z,2.75
2022-12-31T13:18:55.157Z,3.00
2022-12-31T13:21:53.719Z,2.75
2022-12-31T13:24:29.381Z,3.30
2022-12-31T13:27:03.641Z,2.58
2022-12-31T13:29:34.759Z,2.92
2022-12-31T13:32:05.619Z,3.10
2022-12-31T13:34:39.019Z,3.53
2022-12-31T13:37:18.136Z,3.42
2022-12-31T13:39:46.306Z,3.75
2022-12-31T13:42:25.881Z,4.03
2022-12-31T13:45:01.789Z,4.15
2022-12-31T13:47:44.209Z,3.30
2022-12-31T13:50:20.465Z,3.25
2022-12-31T13:53:05.071Z,3.72
2022-12-31T13:55:42.435Z,3.15
2022-12-31T13:58:33.704Z,2.97
2022-12-31T14:01:25.406Z,2.90
2022-12-31T14:04:10.384Z,3.10
2022-12-31T14:07:16.256Z,2.70
2022-12-31T14:09:43.451Z,3.30
2022-12-31T14:12:42.454Z,2.78
2022-12-31T14:15:33.668Z,3.45
2022-12-31T14:18:23.731Z,4.65
2022-12-31T14:21:09.745Z,4.22
2022-12-31T14:23:55.620Z,4.28
2022-12-31T14:26:33.011Z,4.45
2022-12-31T14:29:51.255Z,5.50
2022-12-31T14:32:24.267Z,6.32
2022-12-31T14:35:12.834Z,7.07
2022-12-31T14:38:04.112Z,14.23
2022-12-31T14:40:56.521Z,20.95
2022-12-31T14:43:28.997Z,26.27
2022-12-31T14:46:30.577Z,17.65
2022-12-31T14:49:39.148Z,17.98
2022-12-31T14:52:18.429Z,24.50
2022-12-31T14:54:45.470Z,21.25
2022-12-31T14:58:01.604Z,25.63
2022-12-31T15:00:27.537Z,24.35
2022-12-31T15:02:59.659Z,19.42
2022-12-31T15:05:32.749Z,20.38
2022-12-31T15:08:21.467Z,17.25
2022-12-31T15:10:57.446Z,19.98
2022-12-31T15:13:52.381Z,22.23
2022-12-31T15:16:27.288Z,24.10
2022-12-31T15:19:03.808Z,24.45
2022-12-31T15:21:54.995Z,25.52
2022-12-31T15:24:24.570Z,23.77
2022-12-31T15:26:54.190Z,27.38
2022-12-31T15:29:30.211Z,29.92
2022-12-31T15:32:00.183Z,34.58
2022-12-31T15:34:35.887Z,32.83
2022-12-31T15:37:27.085Z,31.40
2022-12-31T15:40:07.461Z,61.13
2022-12-31T15:42:57.604Z,40.60
2022-12-31T15:45:41.508Z,33.75
2022-12-31T15:48:22.965Z,58.55
2022-12-31T15:50:57.401Z,69.25
2022-12-31T15:53:39.376Z,46.38
2022-12-31T15:56:12.370Z,85.13
2022-12-31T15:58:39.679Z,34.90
2022-12-31T16:01:30.853Z,49.75
2022-12-31T16:04:04.474Z,44.45
2022-12-31T16:06:35.771Z,45.35
2022-12-31T16:09:04.126Z,34.30
2022-12-31T16:11:35.678Z,31.70
2022-12-31T16:14:03.732Z,36.92
2022-12-31T16:16:33.398Z,56.97
2022-12-31T16:19:01.000Z,33.83
2022-12-31T16:21:36.777Z,33.13
2022-12-31T16:24:24.399Z,28.48
2022-12-31T16:26:54.906Z,52.13
2022-12-31T16:29:23.962Z,31.65
2022-12-31T16:31:53.827Z,54.92
2022-12-31T16:34:24.174Z,45.95
2022-12-31T16:37:06.342Z,43.15
2022-12-31T16:39:35.776Z,38.22
2022-12-31T16:42:14.931Z,44.80
2022-12-31T16:44:42.452Z,52.10
2022-12-31T16:47:15.446Z,45.33
2022-12-31T16:49:43.220Z,55.28
2022-12-31T16:52:30.907Z,56.30
2022-12-31T16:54:58.775Z,59.47
2022-12-31T16:57:29.206Z,35.47
2022-12-31T17:00:00.308Z,41.22
2022-12-31T17:02:59.719Z,51.78
2022-12-31T17:05:28.227Z,59.53
2022-12-31T17:07:55.603Z,48.05
2022-12-31T17:10:33.017Z,44.40
2022-12-31T17:15:52.209Z,49.70
2022-12-31T17:18:25.129Z,53.22
2022-12-31T17:20:54.478Z,45.63
2022-12-31T17:23:27.977Z,36.38
2022-12-31T17:26:08.496Z,31.83
2022-12-31T17:28:46.466Z,31.85
2022-12-31T17:31:38.529Z,40.47
2022-12-31T17:34:14.892Z,28.60
2022-12-31T17:37:18.122Z,25.23
2022-12-31T17:42:46.333Z,39.67
2022-12-31T17:45:20.383Z,39.88
2022-12-31T17:47:51.241Z,69.72
2022-12-31T17:50:22.355Z,60.45
2022-12-31T17:52:49.639Z,87.57
2022-12-31T17:55:17.031Z,44.17
2022-12-31T17:57:52.224Z,39.78
2022-12-31T18:00:21.754Z,41.50
2022-12-31T18:02:49.136Z,37.92
2022-12-31T18:05:17.682Z,56.58
2022-12-31T18:07:44.757Z,37.88
2022-12-31T18:10:14.206Z,39.65
2022-12-31T18:12:42.523Z,47.38
2022-12-31T18:15:19.016Z,48.15
2022-12-31T18:17:46.375Z,53.78
2022-12-31T18:20:14.218Z,71.75
2022-12-31T18:22:43.012Z,56.30
2022-12-31T18:25:21.790Z,74.40
2022-12-31T18:27:50.656Z,55.22
2022-12-31T18:30:18.186Z,33.92
2022-12-31T18:32:46.338Z,38.95
2022-12-31T18:35:48.666Z,47.78
2022-12-31T18:38:03.854Z,48.00
2022-12-31T18:40:31.046Z,48.42
2022-12-31T18:43:04.714Z,32.92
2022-12-31T18:45:32.370Z,39.65
2022-12-31T18:47:59.397Z,43.60
2022-12-31T18:50:26.360Z,46.28
2022-12-31T18:52:53.350Z,47.00
2022-12-31T18:55:32.219Z,41.65
2022-12-31T18:57:59.335Z,42.90
2022-12-31T19:00:26.342Z,53.60
2022-12-31T19:02:53.468Z,53.10
2022-12-31T19:05:26.773Z,37.20
2022-12-31T19:07:54.515Z,71.47
2022-12-31T19:10:21.891Z,50.88
2022-12-31T19:12:49.718Z,43.58
2022-12-31T19:15:24.548Z,42.65
2022-12-31T19:17:52.494Z,56.03
2022-12-31T19:20:20.135Z,64.22
2022-12-31T19:22:47.235Z,68.18
2022-12-31T19:25:32.650Z,82.13
2022-12-31T19:28:00.695Z,81.68
2022-12-31T19:30:33.921Z,57.17
2022-12-31T19:33:01.567Z,61.50
2022-12-31T19:35:28.722Z,91.82
2022-12-31T19:37:56.140Z,69.78
2022-12-31T19:40:26.859Z,82.75
2022-12-31T19:42:55.999Z,60.30
2022-12-31T19:45:25.750Z,65.47
2022-12-31T19:47:54.268Z,77.82
2022-12-31T19:50:24.172Z,69.25
2022-12-31T19:52:53.966Z,66.65
2022-12-31T19:55:22.932Z,77.40
2022-12-31T19:57:50.029Z,62.33
2022-12-31T20:00:18.886Z,52.30
2022-12-31T20:02:47.734Z,47.63
2022-12-31T20:05:16.628Z,64.70
2022-12-31T20:07:43.703Z,56.53
2022-12-31T20:10:11.048Z,56.47
2022-12-31T20:12:44.160Z,77.25
2022-12-31T20:15:11.999Z,54.17
2022-12-31T20:17:38.973Z,43.03
2022-12-31T20:20:07.036Z,53.40
2022-12-31T20:22:34.249Z,55.85
2022-12-31T20:25:01.354Z,57.33
2022-12-31T20:27:28.559Z,49.92
2022-12-31T20:29:55.613Z,44.17
2022-12-31T20:32:22.657Z,42.70
2022-12-31T20:34:49.626Z,52.78
2022-12-31T20:37:16.689Z,71.78
2022-12-31T20:39:44.151Z,69.30
2022-12-31T20:42:11.271Z,70.70
2022-12-31T20:44:38.373Z,93.88
2022-12-31T20:47:05.465Z,82.45
2022-12-31T20:50:09.052Z,90.63
2022-12-31T20:52:19.437Z,88.60
2022-12-31T20:54:46.501Z,70.63
2022-12-31T20:57:13.513Z,70.93
2022-12-31T20:59:42.675Z,74.57
2022-12-31T21:02:29.563Z,74.65
2022-12-31T21:05:01.601Z,78.70
2022-12-31T21:07:28.846Z,79.05
2022-12-31T21:09:55.890Z,78.70
2022-12-31T21:12:41.358Z,83.28
2022-12-31T21:15:08.928Z,94.57
2022-12-31T21:17:35.899Z,82.15
2022-12-31T21:20:03.009Z,74.95
2022-12-31T21:22:30.223Z,81.05
2022-12-31T21:24:57.182Z,79.18
2022-12-31T21:27:24.210Z,81.15
2022-12-31T21:30:17.716Z,93.95
2022-12-31T21:32:38.249Z,98.93
2022-12-31T21:35:41.260Z,98.60
2022-12-31T21:37:58.789Z,91.10
2022-12-31T21:40:28.260Z,104.22
2022-12-31T21:42:55.368Z,103.07
2022-12-31T21:45:22.536Z,109.47
2022-12-31T21:48:08.303Z,97.88
2022-12-31T21:50:36.038Z,103.90
2022-12-31T21:53:03.190Z,101.22
2022-12-31T21:55:48.872Z,100.32
2022-12-31T21:58:31.978Z,85.53
2022-12-31T22:01:18.514Z,86.70
2022-12-31T22:03:46.453Z,93.10
2022-12-31T22:06:22.231Z,104.05
2022-12-31T22:08:52.562Z,106.15
2022-12-31T22:11:21.641Z,104.43
2022-12-31T22:13:49.305Z,102.88
2022-12-31T22:16:17.495Z,125.72
2022-12-31T22:18:44.822Z,130.65
2022-12-31T22:21:18.854Z,118.00
2022-12-31T22:23:54.574Z,110.80
2022-12-31T22:26:24.503Z,118.22
2022-12-31T22:28:52.575Z,122.90
2022-12-31T22:31:23.257Z,114.97
2022-12-31T22:33:50.837Z,107.03
2022-12-31T22:36:20.173Z,84.40
2022-12-31T22:38:48.244Z,102.57
2022-12-31T22:41:20.707Z,127.10
2022-12-31T22:43:50.745Z,127.50
2022-12-31T22:46:20.671Z,146.27
2022-12-31T22:48:48.094Z,199.02
2022-12-31T22:51:16.248Z,123.45
2022-12-31T22:53:43.731Z,108.45
2022-12-31T22:56:13.397Z,97.50
2022-12-31T22:58:41.109Z,88.13
2022-12-31T23:01:14.778Z,100.70
2022-12-31T23:03:42.439Z,113.88
2022-12-31T23:06:09.763Z,119.65
2022-12-31T23:08:36.903Z,151.80
2022-12-31T23:11:06.089Z,161.75
2022-12-31T23:14:00.642Z,180.50
2022-12-31T23:16:48.898Z,171.85
2022-12-31T23:19:35.042Z,168.23
2022-12-31T23:22:20.833Z,155.50
2022-12-31T23:24:47.897Z,160.93
2022-12-31T23:27:15.006Z,133.48
2022-12-31T23:29:47.253Z,131.43
2022-12-31T23:32:18.445Z,117.53
2022-12-31T23:34:47.059Z,150.10
2022-12-31T23:37:15.601Z,135.20
2022-12-31T23:39:42.733Z,147.95
2022-12-31T23:42:09.968Z,137.00
2022-12-31T23:44:36.951Z,133.07
2022-12-31T23:47:04.036Z,137.05
2022-12-31T23:49:31.107Z,112.07
2022-12-31T23:51:58.140Z,103.80
2022-12-31T23:54:25.218Z,105.95
2022-12-31T23:56:52.248Z,82.30
2022-12-31T23:59:19.407Z,73.18
